createdAt,value
2023-01-10T00:00:32.000Z,0
2023-01-10T00:01:47.000Z,0
2023-01-10T00:03:03.000Z,0
2023-01-10T00:04:20.000Z,0
2023-01-10T00:05:36.000Z,0
2023-01-10T00:06:52.000Z,0
2023-01-10T00:08:09.000Z,0
2023-01-10T00:09:25.000Z,0
2023-01-10T00:10:41.843Z,0
2023-01-10T00:11:57.000Z,0
2023-01-10T00:13:14.000Z,0
2023-01-10T00:14:30.000Z,0
2023-01-10T00:15:46.000Z,0
2023-01-10T00:17:03.000Z,0
2023-01-10T00:18:18.000Z,0
2023-01-10T00:19:34.000Z,0
2023-01-10T00:20:50.000Z,0
2023-01-10T00:22:07.474Z,0
2023-01-10T00:23:23.000Z,0
2023-01-10T00:24:39.000Z,0
2023-01-10T00:25:56.000Z,0
2023-01-10T00:27:12.612Z,0
2023-01-10T00:28:28.000Z,0
2023-01-10T00:29:44.000Z,0
2023-01-10T00:31:01.000Z,0
2023-01-10T00:32:17.000Z,0
2023-01-10T00:33:33.000Z,0
2023-01-10T00:34:49.000Z,0
2023-01-10T00:36:05.000Z,0
2023-01-10T00:37:21.000Z,0
2023-01-10T00:38:37.000Z,0
2023-01-10T00:39:54.000Z,0
2023-01-10T00:41:10.000Z,0
2023-01-10T00:42:26.000Z,0
2023-01-10T00:43:43.000Z,0
2023-01-10T00:44:59.000Z,0
2023-01-10T00:46:15.000Z,0
2023-01-10T00:47:31.000Z,0
2023-01-10T00:48:48.000Z,0
2023-01-10T00:50:04.000Z,0
2023-01-10T00:51:19.000Z,0
2023-01-10T00:52:36.000Z,0
2023-01-10T00:53:52.000Z,0
2023-01-10T00:55:08.000Z,0
2023-01-10T00:56:25.270Z,0
2023-01-10T00:57:41.000Z,0
2023-01-10T00:58:57.000Z,0
2023-01-10T01:00:13.000Z,0
2023-01-10T01:01:30.416Z,0
2023-01-10T01:02:46.000Z,0
2023-01-10T01:04:02.000Z,0
2023-01-10T01:05:19.000Z,0
2023-01-10T01:06:35.000Z,0
2023-01-10T01:07:50.000Z,0
2023-01-10T01:09:07.128Z,0
2023-01-10T01:10:23.432Z,0
2023-01-10T01:11:39.000Z,0
2023-01-10T01:12:55.000Z,0
2023-01-10T01:14:12.316Z,0
2023-01-10T01:15:28.000Z,0
2023-01-10T01:16:44.000Z,0
2023-01-10T01:18:00.000Z,0
2023-01-10T01:19:17.000Z,0
2023-01-10T01:20:33.000Z,0
2023-01-10T01:21:49.000Z,0
2023-01-10T01:23:06.000Z,0
2023-01-10T01:24:21.000Z,0
2023-01-10T01:25:37.888Z,0
2023-01-10T01:26:53.000Z,0
2023-01-10T01:28:10.000Z,0
2023-01-10T01:29:26.750Z,0
2023-01-10T01:30:42.000Z,0
2023-01-10T01:31:58.000Z,0
2023-01-10T01:33:14.000Z,0
2023-01-10T01:34:30.000Z,0
2023-01-10T01:35:46.000Z,0
2023-01-10T01:37:03.000Z,0
2023-01-10T01:38:19.000Z,0
2023-01-10T01:39:35.000Z,0
2023-01-10T01:40:52.000Z,0
2023-01-10T01:42:08.000Z,0
2023-01-10T01:43:24.000Z,0
2023-01-10T01:44:40.000Z,0
2023-01-10T01:45:57.000Z,0
2023-01-10T01:47:13.000Z,0
2023-01-10T01:48:28.000Z,0
2023-01-10T01:49:45.000Z,0
2023-01-10T01:51:01.000Z,0
2023-01-10T01:52:17.966Z,0
2023-01-10T01:53:34.000Z,0
2023-01-10T01:54:50.000Z,0
2023-01-10T01:56:06.000Z,0
2023-01-10T01:57:22.000Z,0
2023-01-10T01:58:39.000Z,0
2023-01-10T01:59:55.000Z,0
2023-01-10T02:01:11.000Z,0
2023-01-10T02:02:28.000Z,0
2023-01-10T02:03:44.000Z,0
2023-01-10T02:04:59.000Z,0
2023-01-10T02:06:16.166Z,0
2023-01-10T02:07:32.000Z,0
2023-01-10T02:08:48.000Z,0
2023-01-10T02:10:04.000Z,0
2023-01-10T02:11:21.000Z,0
2023-01-10T02:12:37.000Z,0
2023-01-10T02:13:53.973Z,0
2023-01-10T02:15:09.000Z,0
2023-01-10T02:16:26.000Z,0
2023-01-10T02:17:42.000Z,0
2023-01-10T02:18:58.000Z,0
2023-01-10T02:20:15.000Z,0
2023-01-10T02:21:30.000Z,0
2023-01-10T02:22:46.000Z,0
2023-01-10T02:24:02.000Z,0
2023-01-10T02:25:19.000Z,0
2023-01-10T02:26:35.000Z,0
2023-01-10T02:27:51.000Z,0
2023-01-10T02:29:08.000Z,0
2023-01-10T02:30:24.000Z,0
2023-01-10T02:31:40.000Z,0
2023-01-10T02:32:56.000Z,0
2023-01-10T02:34:13.000Z,0
2023-01-10T02:35:29.000Z,0
2023-01-10T02:36:45.000Z,0
2023-01-10T02:38:01.000Z,0
2023-01-10T02:39:17.000Z,0
2023-01-10T02:40:33.000Z,0
2023-01-10T02:41:50.258Z,0
2023-01-10T02:43:06.548Z,0
2023-01-10T02:44:22.000Z,0
2023-01-10T02:45:38.000Z,0
2023-01-10T02:46:55.000Z,0
2023-01-10T02:48:11.000Z,0
2023-01-10T02:49:27.000Z,0
2023-01-10T02:50:44.246Z,0
2023-01-10T02:52:00.000Z,0
2023-01-10T02:53:16.000Z,0
2023-01-10T02:54:31.000Z,0
2023-01-10T02:55:48.000Z,0
2023-01-10T02:57:04.726Z,0
2023-01-10T02:58:20.000Z,0
2023-01-10T02:59:37.000Z,0
2023-01-10T03:00:53.000Z,0
2023-01-10T03:02:09.000Z,0
2023-01-10T03:03:25.000Z,0
2023-01-10T03:04:42.000Z,0
2023-01-10T03:05:58.000Z,0
2023-01-10T03:07:14.000Z,0
2023-01-10T03:08:31.000Z,0
2023-01-10T03:09:47.000Z,0
2023-01-10T03:11:02.000Z,0
2023-01-10T03:12:18.000Z,0
2023-01-10T03:13:35.000Z,0
2023-01-10T03:14:51.739Z,0
2023-01-10T03:16:08.092Z,0
2023-01-10T03:17:24.000Z,0
2023-01-10T03:18:40.000Z,0
2023-01-10T03:19:56.000Z,0
2023-01-10T03:21:12.234Z,0
2023-01-10T03:22:27.000Z,0
2023-01-10T03:23:43.000Z,0
2023-01-10T03:24:59.000Z,0
2023-01-10T03:26:15.000Z,0
2023-01-10T03:27:30.731Z,0
2023-01-10T03:28:46.000Z,0
2023-01-10T03:30:03.000Z,0
2023-01-10T03:31:19.000Z,0
2023-01-10T03:32:35.877Z,0
2023-01-10T03:33:52.167Z,0
2023-01-10T03:35:08.000Z,0
2023-01-10T03:36:24.000Z,0
2023-01-10T03:37:40.000Z,0
2023-01-10T03:38:57.000Z,0
2023-01-10T03:40:13.000Z,0
2023-01-10T03:41:29.000Z,0
2023-01-10T03:42:46.181Z,0
2023-01-10T03:44:01.000Z,0
2023-01-10T03:45:17.000Z,0
2023-01-10T03:46:33.000Z,0
2023-01-10T03:47:50.000Z,0
2023-01-10T03:49:06.000Z,0
2023-01-10T03:50:22.930Z,0
2023-01-10T03:51:38.000Z,0
2023-01-10T03:52:55.000Z,0
2023-01-10T03:54:11.000Z,0
2023-01-10T03:55:28.073Z,0
2023-01-10T03:56:44.000Z,0
2023-01-10T03:58:00.000Z,0
2023-01-10T03:59:16.000Z,0
2023-01-10T04:00:31.000Z,0
2023-01-10T04:01:48.000Z,0
2023-01-10T04:03:04.000Z,0
2023-01-10T04:04:20.000Z,0
2023-01-10T04:05:37.000Z,0
2023-01-10T04:06:53.000Z,0
2023-01-10T04:08:09.000Z,0
2023-01-10T04:09:26.000Z,0
2023-01-10T04:10:42.000Z,0
2023-01-10T04:11:58.000Z,0
2023-01-10T04:13:14.000Z,0
2023-01-10T04:14:31.000Z,0
2023-01-10T04:15:47.000Z,0
2023-01-10T04:17:02.000Z,0
2023-01-10T04:18:19.000Z,0
2023-01-10T04:19:35.000Z,0
2023-01-10T04:20:51.000Z,0
2023-01-10T04:22:07.000Z,0
2023-01-10T04:23:24.000Z,0
2023-01-10T04:24:40.713Z,0
2023-01-10T04:25:56.000Z,0
2023-01-10T04:27:13.000Z,0
2023-01-10T04:28:29.000Z,0
2023-01-10T04:29:45.000Z,0
2023-01-10T04:31:02.163Z,0
2023-01-10T04:32:18.000Z,0
2023-01-10T04:33:33.000Z,0
2023-01-10T04:34:49.000Z,0
2023-01-10T04:36:06.000Z,0
2023-01-10T04:37:22.000Z,0
2023-01-10T04:38:38.000Z,0
2023-01-10T04:39:54.000Z,0
2023-01-10T04:41:11.000Z,0
2023-01-10T04:42:27.000Z,0
2023-01-10T04:43:43.000Z,0
2023-01-10T04:45:00.000Z,0
2023-01-10T04:46:16.000Z,0
2023-01-10T04:47:32.000Z,0
2023-01-10T04:48:48.000Z,0
2023-01-10T04:50:04.497Z,0
2023-01-10T04:51:20.000Z,0
2023-01-10T04:52:36.000Z,0
2023-01-10T04:53:53.000Z,0
2023-01-10T04:55:09.000Z,0
2023-01-10T04:56:25.000Z,0
2023-01-10T04:57:41.000Z,0
2023-01-10T04:58:58.000Z,0
2023-01-10T05:00:14.000Z,0
2023-01-10T05:01:30.000Z,0
2023-01-10T05:02:47.000Z,0
2023-01-10T05:04:03.665Z,0
2023-01-10T05:05:19.000Z,0
2023-01-10T05:06:35.000Z,0
2023-01-10T05:07:51.000Z,0
2023-01-10T05:09:07.000Z,0
2023-01-10T05:10:23.000Z,0
2023-01-10T05:11:40.000Z,0
2023-01-10T05:12:56.000Z,0
2023-01-10T05:14:12.000Z,0
2023-01-10T05:15:29.274Z,0
2023-01-10T05:16:45.000Z,0
2023-01-10T05:18:01.000Z,0
2023-01-10T05:19:18.143Z,0
2023-01-10T05:20:34.000Z,0
2023-01-10T05:21:50.000Z,0
2023-01-10T05:23:05.000Z,0
2023-01-10T05:24:22.000Z,0
2023-01-10T05:25:38.000Z,0
2023-01-10T05:26:54.000Z,0
2023-01-10T05:28:11.173Z,0
2023-01-10T05:29:27.000Z,0
2023-01-10T05:30:43.000Z,0
2023-01-10T05:33:16.000Z,0
2023-01-10T05:34:32.000Z,0
2023-01-10T05:35:48.000Z,0
2023-01-10T05:37:04.000Z,0
2023-01-10T05:38:21.454Z,0
2023-01-10T05:39:36.000Z,0
2023-01-10T05:40:53.055Z,0
2023-01-10T05:42:09.000Z,0
2023-01-10T05:43:25.000Z,0
2023-01-10T05:44:41.906Z,0
2023-01-10T05:45:57.000Z,0
2023-01-10T05:47:13.000Z,0
2023-01-10T05:48:29.000Z,0
2023-01-10T05:49:45.000Z,0
2023-01-10T05:51:02.000Z,0
2023-01-10T05:52:18.000Z,0
2023-01-10T05:53:34.942Z,0
2023-01-10T05:54:51.000Z,0
2023-01-10T05:56:07.000Z,0
2023-01-10T05:57:23.000Z,0
2023-01-10T05:58:39.000Z,0
2023-01-10T06:01:12.000Z,0
2023-01-10T06:02:28.000Z,0
2023-01-10T06:03:44.000Z,0
2023-01-10T06:05:00.000Z,0
2023-01-10T06:06:16.853Z,0
2023-01-10T06:07:32.000Z,0
2023-01-10T06:08:49.000Z,0
2023-01-10T06:10:05.000Z,0
2023-01-10T06:11:21.000Z,0
2023-01-10T06:12:38.000Z,0
2023-01-10T06:13:54.567Z,0
2023-01-10T06:15:10.000Z,0
2023-01-10T06:16:26.000Z,0
2023-01-10T06:17:43.000Z,0
2023-01-10T06:18:59.739Z,0
2023-01-10T06:20:14.000Z,0
2023-01-10T06:21:31.000Z,0
2023-01-10T06:22:47.594Z,0
2023-01-10T06:24:03.000Z,0
2023-01-10T06:25:19.000Z,0
2023-01-10T06:26:36.000Z,0
2023-01-10T06:27:52.000Z,0
2023-01-10T06:29:08.000Z,0
2023-01-10T06:30:25.000Z,0
2023-01-10T06:31:41.621Z,0
2023-01-10T06:32:57.000Z,0
2023-01-10T06:34:13.000Z,0
2023-01-10T06:35:30.000Z,0
2023-01-10T06:36:45.000Z,0
2023-01-10T06:38:01.000Z,0
2023-01-10T06:39:18.000Z,0
2023-01-10T06:40:34.000Z,0
2023-01-10T06:41:50.000Z,0
2023-01-10T06:43:06.000Z,0
2023-01-10T06:44:23.000Z,0
2023-01-10T06:45:39.000Z,0
2023-01-10T06:46:55.000Z,0
2023-01-10T06:48:12.000Z,0
2023-01-10T06:49:28.000Z,0
2023-01-10T06:50:44.000Z,0
2023-01-10T06:52:00.000Z,0
2023-01-10T06:53:16.000Z,0
2023-01-10T06:54:32.000Z,0
2023-01-10T06:55:48.000Z,0
2023-01-10T06:57:05.570Z,0
2023-01-10T06:58:21.000Z,0
2023-01-10T06:59:37.000Z,0
2023-01-10T07:00:53.000Z,0
2023-01-10T07:02:09.000Z,0
2023-01-10T07:03:26.448Z,0
2023-01-10T07:04:42.725Z,0
2023-01-10T07:05:58.000Z,0
2023-01-10T07:07:14.000Z,0
2023-01-10T07:08:31.000Z,0
2023-01-10T07:09:46.000Z,0
2023-01-10T07:11:02.000Z,0
2023-01-10T07:12:18.000Z,0
2023-01-10T07:13:35.000Z,0
2023-01-10T07:14:51.000Z,0
2023-01-10T07:16:07.000Z,0
2023-01-10T07:17:23.000Z,0
2023-01-10T07:18:40.321Z,0
2023-01-10T07:19:56.000Z,0
2023-01-10T07:21:12.000Z,0
2023-01-10T07:22:29.011Z,0
2023-01-10T07:23:45.000Z,0
2023-01-10T07:25:01.000Z,0
2023-01-10T07:26:16.000Z,0
2023-01-10T07:27:32.000Z,0
2023-01-10T07:28:48.000Z,0
2023-01-10T07:30:05.000Z,0
2023-01-10T07:31:21.676Z,0
2023-01-10T07:32:37.000Z,0
2023-01-10T07:33:54.132Z,0
2023-01-10T07:35:10.000Z,0
2023-01-10T07:36:26.000Z,0
2023-01-10T07:37:42.000Z,0
2023-01-10T07:38:59.073Z,0
2023-01-10T07:40:15.000Z,0
2023-01-10T07:41:31.000Z,0
2023-01-10T07:42:46.000Z,0
2023-01-10T07:44:02.000Z,0
2023-01-10T07:45:19.000Z,0
2023-01-10T07:46:35.495Z,0
2023-01-10T07:49:07.000Z,0
2023-01-10T07:50:23.000Z,0
2023-01-10T07:51:40.000Z,0
2023-01-10T07:52:56.687Z,0
2023-01-10T07:54:12.908Z,0
2023-01-10T07:55:28.000Z,0
2023-01-10T07:56:45.000Z,0
2023-01-10T07:58:01.000Z,0
2023-01-10T07:59:16.000Z,0
2023-01-10T08:00:33.096Z,0
2023-01-10T08:01:49.302Z,0
2023-01-10T08:03:05.000Z,0
2023-01-10T08:04:21.000Z,5
2023-01-10T08:05:37.000Z,5
2023-01-10T08:06:54.000Z,5
2023-01-10T08:08:10.000Z,5
2023-01-10T08:09:26.716Z,5
2023-01-10T08:10:42.000Z,5
2023-01-10T08:11:58.000Z,5
2023-01-10T08:13:15.000Z,5
2023-01-10T08:14:31.657Z,11
2023-01-10T08:15:46.000Z,11
2023-01-10T08:17:03.132Z,11
2023-01-10T08:18:19.000Z,11
2023-01-10T08:19:35.000Z,11
2023-01-10T08:20:51.000Z,11
2023-01-10T08:22:07.000Z,11
2023-01-10T08:23:24.000Z,11
2023-01-10T08:24:40.541Z,11
2023-01-10T08:25:56.000Z,5
2023-01-10T08:27:12.000Z,11
2023-01-10T08:28:28.000Z,11
2023-01-10T08:29:45.000Z,16
2023-01-10T08:31:01.000Z,16
2023-01-10T08:32:17.932Z,16
2023-01-10T08:33:32.000Z,16
2023-01-10T08:34:49.000Z,16
2023-01-10T08:36:05.655Z,16
2023-01-10T08:37:21.000Z,16
2023-01-10T08:38:38.123Z,22
2023-01-10T08:39:54.466Z,22
2023-01-10T08:41:10.000Z,22
2023-01-10T08:42:26.000Z,22
2023-01-10T08:43:42.000Z,28
2023-01-10T08:44:59.000Z,22
2023-01-10T08:46:15.000Z,16
2023-01-10T08:48:47.000Z,22
2023-01-10T08:50:02.000Z,22
2023-01-10T08:51:19.457Z,22
2023-01-10T08:52:35.000Z,22
2023-01-10T08:53:51.000Z,22
2023-01-10T08:55:08.178Z,22
2023-01-10T08:56:24.000Z,22
2023-01-10T08:57:40.000Z,16
2023-01-10T08:58:56.000Z,22
2023-01-10T09:00:12.000Z,33
2023-01-10T09:01:29.000Z,39
2023-01-10T09:02:45.566Z,33
2023-01-10T09:04:01.000Z,33
2023-01-10T09:05:17.000Z,45
2023-01-10T09:06:33.000Z,67
2023-01-10T09:07:49.000Z,95
2023-01-10T09:09:05.000Z,78
2023-01-10T09:10:21.000Z,123
2023-01-10T09:11:37.000Z,67
2023-01-10T09:12:54.000Z,95
2023-01-10T09:14:10.000Z,73
2023-01-10T09:15:26.000Z,90
2023-01-10T09:16:42.000Z,112
2023-01-10T09:17:59.000Z,95
2023-01-10T09:19:15.000Z,90
2023-01-10T09:20:31.000Z,101
2023-01-10T09:21:47.000Z,101
2023-01-10T09:23:03.000Z,151
2023-01-10T09:24:19.000Z,123
2023-01-10T09:25:35.000Z,112
2023-01-10T09:26:51.000Z,90
2023-01-10T09:28:08.000Z,118
2023-01-10T09:29:24.501Z,196
2023-01-10T09:30:40.000Z,286
2023-01-10T09:31:56.000Z,140
2023-01-10T09:33:12.000Z,118
2023-01-10T09:34:29.000Z,163
2023-01-10T09:35:45.000Z,292
2023-01-10T09:37:01.000Z,163
2023-01-10T09:38:17.000Z,270
2023-01-10T09:39:33.403Z,84
2023-01-10T09:40:49.000Z,135
2023-01-10T09:42:05.000Z,135
2023-01-10T09:43:21.000Z,78
2023-01-10T09:44:38.000Z,112
2023-01-10T09:45:54.000Z,118
2023-01-10T09:47:10.000Z,95
2023-01-10T09:48:27.036Z,106
2023-01-10T09:49:43.000Z,225
2023-01-10T09:50:59.000Z,196
2023-01-10T09:52:15.000Z,123
2023-01-10T09:53:31.000Z,101
2023-01-10T09:54:47.000Z,106
2023-01-10T09:56:03.000Z,140
2023-01-10T09:57:19.000Z,253
2023-01-10T09:58:35.000Z,196
2023-01-10T09:59:52.157Z,118
2023-01-10T10:01:08.000Z,123
2023-01-10T10:02:23.000Z,123
2023-01-10T10:03:39.879Z,90
2023-01-10T10:04:55.000Z,101
2023-01-10T10:06:12.348Z,106
2023-01-10T10:08:44.000Z,73
2023-01-10T10:10:00.000Z,84
2023-01-10T10:11:17.282Z,67
2023-01-10T10:12:33.000Z,84
2023-01-10T10:13:49.726Z,50
2023-01-10T10:15:05.000Z,50
2023-01-10T10:16:21.000Z,67
2023-01-10T10:17:38.000Z,101
2023-01-10T10:18:53.710Z,213
2023-01-10T10:20:09.938Z,135
2023-01-10T10:21:25.000Z,247
2023-01-10T10:22:42.000Z,725
2023-01-10T10:23:58.000Z,236
2023-01-10T10:25:14.000Z,461
2023-01-10T10:26:31.119Z,877
2023-01-10T10:27:47.000Z,562
2023-01-10T10:29:03.000Z,450
2023-01-10T10:30:19.000Z,365
2023-01-10T10:31:36.026Z,495
2023-01-10T10:32:52.000Z,545
2023-01-10T10:34:08.000Z,253
2023-01-10T10:35:23.000Z,309
2023-01-10T10:36:39.000Z,624
2023-01-10T10:37:55.000Z,601
2023-01-10T10:39:12.000Z,286
2023-01-10T10:40:28.000Z,534
2023-01-10T10:41:44.900Z,568
2023-01-10T10:43:00.000Z,770
2023-01-10T10:44:17.000Z,781
2023-01-10T10:45:33.619Z,551
2023-01-10T10:46:49.000Z,624
2023-01-10T10:48:05.000Z,697
2023-01-10T10:49:22.325Z,725
2023-01-10T10:50:38.000Z,950
2023-01-10T10:51:53.000Z,697
2023-01-10T10:53:09.000Z,613
2023-01-10T10:54:26.000Z,1113
2023-01-10T10:55:42.000Z,866
2023-01-10T10:56:58.730Z,736
2023-01-10T10:58:14.962Z,1102
2023-01-10T10:59:30.000Z,866
2023-01-10T11:00:47.000Z,613
2023-01-10T11:02:03.000Z,916
2023-01-10T11:03:19.000Z,849
2023-01-10T11:04:35.000Z,343
2023-01-10T11:05:52.000Z,444
2023-01-10T11:07:08.000Z,213
2023-01-10T11:08:23.000Z,191
2023-01-10T11:09:39.000Z,101
2023-01-10T11:10:56.296Z,61
2023-01-10T11:12:12.000Z,84
2023-01-10T11:13:28.000Z,101
2023-01-10T11:14:44.000Z,61
2023-01-10T11:16:01.257Z,39
2023-01-10T11:17:17.000Z,50
2023-01-10T11:18:33.000Z,101
2023-01-10T11:19:49.000Z,90
2023-01-10T11:21:05.000Z,106
2023-01-10T11:22:22.000Z,151
2023-01-10T11:23:38.000Z,253
2023-01-10T11:24:53.000Z,225
2023-01-10T11:26:10.130Z,230
2023-01-10T11:27:26.354Z,315
2023-01-10T11:28:42.000Z,281
2023-01-10T11:29:58.000Z,270
2023-01-10T11:31:14.000Z,286
2023-01-10T11:32:31.000Z,258
2023-01-10T11:33:47.000Z,219
2023-01-10T11:35:03.744Z,118
2023-01-10T11:36:19.000Z,73
2023-01-10T11:37:36.211Z,61
2023-01-10T11:38:52.000Z,61
2023-01-10T11:40:08.000Z,67
2023-01-10T11:41:23.000Z,67
2023-01-10T11:42:40.175Z,78
2023-01-10T11:43:56.000Z,56
2023-01-10T11:45:12.000Z,90
2023-01-10T11:46:28.000Z,202
2023-01-10T11:47:44.000Z,174
2023-01-10T11:49:01.335Z,112
2023-01-10T11:50:17.575Z,185
2023-01-10T11:51:33.000Z,174
2023-01-10T11:52:49.000Z,185
2023-01-10T11:54:06.000Z,185
2023-01-10T11:55:22.000Z,196
2023-01-10T11:56:38.000Z,180
2023-01-10T11:57:54.011Z,174
2023-01-10T11:59:10.281Z,180
2023-01-10T12:00:26.000Z,174
2023-01-10T12:01:42.000Z,157
2023-01-10T12:02:58.000Z,146
2023-01-10T12:04:15.166Z,140
2023-01-10T12:05:31.379Z,129
2023-01-10T12:06:47.000Z,129
2023-01-10T12:08:03.900Z,118
2023-01-10T12:09:20.076Z,101
2023-01-10T12:10:36.000Z,95
2023-01-10T12:11:52.000Z,90
2023-01-10T12:13:08.786Z,90
2023-01-10T12:14:23.000Z,90
2023-01-10T12:15:40.000Z,95
2023-01-10T12:16:56.000Z,95
2023-01-10T12:18:12.000Z,95
2023-01-10T12:19:28.000Z,90
2023-01-10T12:20:44.000Z,73
2023-01-10T12:22:01.000Z,73
2023-01-10T12:23:17.000Z,90
2023-01-10T12:24:33.000Z,90
2023-01-10T12:25:49.000Z,78
2023-01-10T12:28:22.000Z,90
2023-01-10T12:29:38.000Z,90
2023-01-10T12:30:53.000Z,95
2023-01-10T12:32:10.000Z,95
2023-01-10T12:33:26.000Z,90
2023-01-10T12:34:42.000Z,95
2023-01-10T12:35:59.024Z,95
2023-01-10T12:37:15.000Z,95
2023-01-10T12:38:31.500Z,101
2023-01-10T12:39:47.000Z,95
2023-01-10T12:41:03.000Z,95
2023-01-10T12:42:19.000Z,95
2023-01-10T12:43:36.000Z,90
2023-01-10T12:44:52.000Z,95
2023-01-10T12:46:08.000Z,90
2023-01-10T12:47:23.000Z,95
2023-01-10T12:48:40.000Z,95
2023-01-10T12:49:56.000Z,95
2023-01-10T12:51:12.857Z,95
2023-01-10T12:52:28.000Z,95
2023-01-10T12:53:45.000Z,90
2023-01-10T12:55:01.000Z,90
2023-01-10T12:56:17.000Z,90
2023-01-10T12:57:33.000Z,84
2023-01-10T12:58:50.245Z,84
2023-01-10T13:00:06.000Z,84
2023-01-10T13:01:22.711Z,78
2023-01-10T13:02:38.937Z,78
2023-01-10T13:03:53.000Z,78
2023-01-10T13:05:10.000Z,73
2023-01-10T13:06:26.000Z,73
2023-01-10T13:07:42.000Z,73
2023-01-10T13:08:59.139Z,67
2023-01-10T13:10:15.000Z,67
2023-01-10T13:11:31.000Z,67
2023-01-10T13:12:47.000Z,61
2023-01-10T13:15:20.000Z,61
2023-01-10T13:16:36.000Z,61
2023-01-10T13:17:52.777Z,61
2023-01-10T13:19:08.000Z,61
2023-01-10T13:20:24.000Z,61
2023-01-10T13:21:40.502Z,61
2023-01-10T13:22:56.000Z,61
2023-01-10T13:24:12.000Z,61
2023-01-10T13:25:28.000Z,61
2023-01-10T13:26:45.000Z,61
2023-01-10T13:28:01.000Z,61
2023-01-10T13:29:17.902Z,61
2023-01-10T13:30:34.132Z,61
2023-01-10T13:31:50.000Z,61
2023-01-10T13:33:06.000Z,61
2023-01-10T13:34:22.000Z,61
2023-01-10T13:35:38.000Z,56
2023-01-10T13:36:54.291Z,56
2023-01-10T13:38:10.000Z,56
2023-01-10T13:39:26.778Z,56
2023-01-10T13:40:42.000Z,50
2023-01-10T13:41:58.000Z,50
2023-01-10T13:43:15.000Z,50
2023-01-10T13:44:31.713Z,50
2023-01-10T13:45:47.000Z,45
2023-01-10T13:47:03.000Z,45
2023-01-10T13:48:20.417Z,45
2023-01-10T13:49:36.000Z,45
2023-01-10T13:50:52.000Z,39
2023-01-10T13:52:08.000Z,39
2023-01-10T13:53:24.000Z,39
2023-01-10T13:54:40.000Z,39
2023-01-10T13:57:12.000Z,39
2023-01-10T13:58:29.000Z,33
2023-01-10T13:59:45.546Z,33
2023-01-10T14:01:01.758Z,33
2023-01-10T14:02:17.000Z,33
2023-01-10T14:03:33.000Z,33
2023-01-10T14:04:50.000Z,33
2023-01-10T14:06:06.000Z,33
2023-01-10T14:07:22.000Z,28
2023-01-10T14:08:39.149Z,28
2023-01-10T14:09:54.000Z,28
2023-01-10T14:11:10.000Z,28
2023-01-10T14:12:26.000Z,28
2023-01-10T14:13:42.000Z,28
2023-01-10T14:14:59.000Z,28
2023-01-10T14:16:15.000Z,22
2023-01-10T14:17:30.835Z,22
2023-01-10T14:18:46.000Z,22
2023-01-10T14:20:03.000Z,22
2023-01-10T14:21:19.542Z,22
2023-01-10T14:22:35.760Z,22
2023-01-10T14:23:51.000Z,16
2023-01-10T14:25:07.000Z,16
2023-01-10T14:26:24.000Z,16
2023-01-10T14:27:40.715Z,16
2023-01-10T14:28:56.000Z,16
2023-01-10T14:30:13.172Z,16
2023-01-10T14:31:29.000Z,16
2023-01-10T14:32:45.000Z,16
2023-01-10T14:34:00.000Z,16
2023-01-10T14:35:16.000Z,16
2023-01-10T14:36:33.000Z,16
2023-01-10T14:37:49.595Z,16
2023-01-10T14:39:05.000Z,11
2023-01-10T14:40:21.000Z,11
2023-01-10T14:41:38.302Z,11
2023-01-10T14:42:54.000Z,11
2023-01-10T14:44:10.000Z,11
2023-01-10T14:45:26.983Z,11
2023-01-10T14:47:59.000Z,5
2023-01-10T14:49:15.000Z,5
2023-01-10T14:50:30.000Z,5
2023-01-10T14:51:46.000Z,5
2023-01-10T14:54:19.000Z,5
2023-01-10T14:55:35.000Z,5
2023-01-10T14:56:51.000Z,5
2023-01-10T14:58:08.000Z,5
2023-01-10T15:00:40.000Z,5
2023-01-10T15:01:55.000Z,5
2023-01-10T15:03:11.000Z,0
2023-01-10T15:04:27.000Z,0
2023-01-10T15:05:43.000Z,0
2023-01-10T15:06:59.000Z,0
2023-01-10T15:08:16.000Z,0
2023-01-10T15:09:32.464Z,0
2023-01-10T15:10:48.000Z,0
2023-01-10T15:12:04.000Z,0
2023-01-10T15:13:20.000Z,0
2023-01-10T15:14:37.000Z,0
2023-01-10T15:15:52.000Z,0
2023-01-10T15:17:07.000Z,0
2023-01-10T15:18:23.000Z,0
2023-01-10T15:19:40.000Z,0
2023-01-10T15:20:56.000Z,0
2023-01-10T15:22:12.000Z,0
2023-01-10T15:23:28.000Z,0
2023-01-10T15:24:45.349Z,0
2023-01-10T15:26:01.000Z,0
2023-01-10T15:27:17.000Z,0
2023-01-10T15:28:33.000Z,0
2023-01-10T15:29:50.000Z,0
2023-01-10T15:31:06.000Z,0
2023-01-10T15:32:22.000Z,0
2023-01-10T15:33:37.000Z,0
2023-01-10T15:34:53.000Z,0
2023-01-10T15:36:10.455Z,0
2023-01-10T15:38:42.000Z,0
2023-01-10T15:39:58.000Z,0
2023-01-10T15:41:15.000Z,0
2023-01-10T15:42:31.000Z,0
2023-01-10T15:43:47.000Z,0
2023-01-10T15:45:03.000Z,0
2023-01-10T15:46:20.000Z,0
2023-01-10T15:47:36.000Z,0
2023-01-10T15:48:52.000Z,0
2023-01-10T15:50:07.000Z,0
2023-01-10T15:51:24.000Z,0
2023-01-10T15:52:40.000Z,0
2023-01-10T15:53:56.000Z,0
2023-01-10T15:55:12.000Z,0
2023-01-10T15:56:28.000Z,0
2023-01-10T15:57:45.000Z,0
2023-01-10T15:59:01.664Z,0
2023-01-10T16:00:17.000Z,0
2023-01-10T16:01:33.000Z,0
2023-01-10T16:02:50.000Z,0
2023-01-10T16:04:06.000Z,0
2023-01-10T16:05:22.000Z,0
2023-01-10T16:06:38.000Z,0
2023-01-10T16:07:54.000Z,0
2023-01-10T16:09:10.000Z,0
2023-01-10T16:10:26.000Z,0
2023-01-10T16:11:43.000Z,0
2023-01-10T16:12:59.000Z,0
2023-01-10T16:14:15.000Z,0
2023-01-10T16:15:32.244Z,0
2023-01-10T16:16:48.000Z,0
2023-01-10T16:18:04.000Z,0
2023-01-10T16:19:20.000Z,0
2023-01-10T16:20:37.000Z,0
2023-01-10T16:21:53.714Z,0
2023-01-10T16:23:08.000Z,0
2023-01-10T16:24:25.000Z,0
2023-01-10T16:25:41.000Z,0
2023-01-10T16:26:57.000Z,0
2023-01-10T16:28:13.000Z,0
2023-01-10T16:29:30.000Z,0
2023-01-10T16:30:46.000Z,0
2023-01-10T16:32:02.000Z,0
2023-01-10T16:33:19.000Z,0
2023-01-10T16:34:35.000Z,0
2023-01-10T16:35:51.000Z,0
2023-01-10T16:37:07.000Z,0
2023-01-10T16:38:24.000Z,0
2023-01-10T16:39:39.000Z,0
2023-01-10T16:40:55.000Z,0
2023-01-10T16:42:12.342Z,0
2023-01-10T16:43:28.000Z,0
2023-01-10T16:44:44.000Z,0
2023-01-10T16:46:00.000Z,0
2023-01-10T16:47:17.000Z,0
2023-01-10T16:48:33.000Z,0
2023-01-10T16:49:50.071Z,0
2023-01-10T16:51:06.000Z,0
2023-01-10T16:52:22.000Z,0
2023-01-10T16:53:38.000Z,0
2023-01-10T16:54:55.197Z,0
2023-01-10T16:56:10.000Z,0
2023-01-10T16:57:26.000Z,0
2023-01-10T16:58:42.000Z,0
2023-01-10T16:59:59.000Z,0
2023-01-10T17:01:15.000Z,0
2023-01-10T17:02:31.000Z,0
2023-01-10T17:03:47.000Z,0
2023-01-10T17:05:04.000Z,0
2023-01-10T17:07:36.000Z,0
2023-01-10T17:08:53.000Z,0
2023-01-10T17:10:09.000Z,0
2023-01-10T17:11:25.000Z,0
2023-01-10T17:12:41.000Z,0
2023-01-10T17:13:57.000Z,0
2023-01-10T17:15:13.000Z,0
2023-01-10T17:16:29.000Z,0
2023-01-10T17:17:46.000Z,0
2023-01-10T17:19:02.000Z,0
2023-01-10T17:20:18.000Z,0
2023-01-10T17:21:35.000Z,0
2023-01-10T17:22:51.000Z,0
2023-01-10T17:24:07.000Z,0
2023-01-10T17:25:23.000Z,0
2023-01-10T17:26:40.000Z,0
2023-01-10T17:27:56.000Z,0
2023-01-10T17:29:11.000Z,0
2023-01-10T17:30:28.321Z,0
2023-01-10T17:31:44.000Z,0
2023-01-10T17:33:00.000Z,0
2023-01-10T17:34:16.000Z,0
2023-01-10T17:35:33.000Z,0
2023-01-10T17:36:49.000Z,0
2023-01-10T17:38:05.000Z,0
2023-01-10T17:39:22.000Z,0
2023-01-10T17:40:38.000Z,0
2023-01-10T17:41:54.000Z,0
2023-01-10T17:43:10.000Z,0
2023-01-10T17:44:27.000Z,0
2023-01-10T17:45:43.000Z,0
2023-01-10T17:46:58.000Z,0
2023-01-10T17:48:15.000Z,0
2023-01-10T17:49:31.000Z,0
2023-01-10T17:50:47.000Z,0
2023-01-10T17:52:03.000Z,0
2023-01-10T17:53:20.000Z,0
2023-01-10T17:54:36.000Z,0
2023-01-10T17:55:52.000Z,0
2023-01-10T17:58:25.000Z,0
2023-01-10T17:59:41.000Z,0
2023-01-10T18:00:57.000Z,0
2023-01-10T18:02:14.000Z,0
2023-01-10T18:03:29.000Z,0
2023-01-10T18:04:45.000Z,0
2023-01-10T18:06:02.000Z,0
2023-01-10T18:07:18.000Z,0
2023-01-10T18:08:34.000Z,0
2023-01-10T18:09:51.000Z,0
2023-01-10T18:11:07.000Z,0
2023-01-10T18:12:23.000Z,0
2023-01-10T18:13:39.000Z,0
2023-01-10T18:14:56.403Z,0
2023-01-10T18:16:12.000Z,0
2023-01-10T18:17:28.000Z,0
2023-01-10T18:18:45.286Z,0
2023-01-10T18:20:00.000Z,0
2023-01-10T18:21:16.000Z,0
2023-01-10T18:22:32.000Z,0
2023-01-10T18:23:49.000Z,0
2023-01-10T18:25:05.000Z,0
2023-01-10T18:26:21.000Z,0
2023-01-10T18:27:38.286Z,0
2023-01-10T18:28:54.000Z,0
2023-01-10T18:30:10.000Z,0
2023-01-10T18:31:26.000Z,0
2023-01-10T18:32:42.000Z,0
2023-01-10T18:33:58.000Z,0
2023-01-10T18:35:15.060Z,0
2023-01-10T18:36:31.000Z,0
2023-01-10T18:37:47.624Z,0
2023-01-10T18:39:03.000Z,0
2023-01-10T18:40:19.000Z,0
2023-01-10T18:41:36.000Z,0
2023-01-10T18:42:52.000Z,0
2023-01-10T18:44:08.000Z,0